KPDX/PDX METAR and TAF weather

Enter ICAO airport designator
Station Type Date Time Source
KPDX METAR 2019/05/26 22:53 UTC NOAA

KPDX 262253Z 29010KT 10SM FEW065 SCT160 SCT200 22/12 A2980 RMK AO2 SLP090 TCU DSNT NE AND SW T02220117 $


Station Type Date Time Source
KPDX Decoded METAR 2019/05/26 22:53 UTC NOAA

PORTLAND INTERNATIONAL AIRPORT, OR, United States (KPDX) 45-35N 122-36W 7M
May 26, 2019 - 06:53 PM EDT / 2019.05.26 2253 UTC
Wind: from the WNW (290 degrees) at 12 MPH (10 KT):0
Visibility: 10 mile(s):0
Sky conditions: partly cloudy
Weather: Towering cumulus clouds observed
Temperature: 72.0 F (22.2 C)
Dew Point: 53.1 F (11.7 C)
Relative Humidity: 51%
Pressure (altimeter): 29.8 in. Hg (1009 hPa)
ob: KPDX 262253Z 29010KT 10SM FEW065 SCT160 SCT200 22/12 A2980 RMK AO2 SLP090 TCU DSNT NE AND SW T02220117
cycle: 23

Station Type Date Time Source
KPDX TAF 2019/05/26 21:57 UTC NOAA

TAF
AMD KPDX 262055Z 2621/2718 33007KT P6SM VCSH SCT035 BKN120
FM270300 VRB05KT P6SM SCT060
FM271300 VRB02KT P6SM BKN020

Example: see airport list